sensor_id;sensor_type;location;lat;lon;timestamp;temperature;humidity
14682;DHT22;7429;52.498;13.480;2023-02-07T00:00:56;-4.00;99.90
14682;DHT22;7429;52.498;13.480;2023-02-07T00:04:01;-4.10;99.90
14682;DHT22;7429;52.498;13.480;2023-02-07T00:07:04;-4.10;99.90
14682;DHT22;7429;52.498;13.480;2023-02-07T00:10:08;-4.10;99.90
14682;DHT22;7429;52.498;13.480;2023-02-07T00:13:14;-4.10;99.90
14682;DHT22;7429;52.498;13.480;2023-02-07T00:16:18;-4.10;99.90
14682;DHT22;7429;52.498;13.480;2023-02-07T00:19:23;-4.10;99.90
14682;DHT22;7429;52.498;13.480;2023-02-07T00:22:26;-4.10;99.90
14682;DHT22;7429;52.498;13.480;2023-02-07T00:25:29;-4.10;99.90
14682;DHT22;7429;52.498;13.480;2023-02-07T00:28:33;-4.20;99.90
14682;DHT22;7429;52.498;13.480;2023-02-07T00:31:37;-4.20;99.90
14682;DHT22;7429;52.498;13.480;2023-02-07T00:34:45;-4.30;99.90
14682;DHT22;7429;52.498;13.480;2023-02-07T00:37:51;-4.30;99.90
14682;DHT22;7429;52.498;13.480;2023-02-07T00:40:56;-4.40;99.90
14682;DHT22;7429;52.498;13.480;2023-02-07T00:43:59;-4.30;99.90
14682;DHT22;7429;52.498;13.480;2023-02-07T00:47:02;-4.30;99.90
14682;DHT22;7429;52.498;13.480;2023-02-07T00:50:08;-4.30;99.90
14682;DHT22;7429;52.498;13.480;2023-02-07T00:53:11;-4.30;99.90
14682;DHT22;7429;52.498;13.480;2023-02-07T00:56:14;-4.40;99.90
14682;DHT22;7429;52.498;13.480;2023-02-07T00:59:18;-4.40;99.90
14682;DHT22;7429;52.498;13.480;2023-02-07T01:02:21;-4.30;99.90
14682;DHT22;7429;52.498;13.480;2023-02-07T01:05:26;-4.40;99.90
14682;DHT22;7429;52.498;13.480;2023-02-07T01:08:29;-4.40;99.90
14682;DHT22;7429;52.498;13.480;2023-02-07T01:11:32;-4.40;99.90
14682;DHT22;7429;52.498;13.480;2023-02-07T01:14:35;-4.50;99.90
14682;DHT22;7429;52.498;13.480;2023-02-07T01:17:38;-4.40;99.90
14682;DHT22;7429;52.498;13.480;2023-02-07T01:20:43;-4.50;99.90
14682;DHT22;7429;52.498;13.480;2023-02-07T01:23:46;-4.50;99.90
14682;DHT22;7429;52.498;13.480;2023-02-07T01:26:50;-4.60;99.90
14682;DHT22;7429;52.498;13.480;2023-02-07T01:29:53;-4.60;99.90
14682;DHT22;7429;52.498;13.480;2023-02-07T01:32:56;-4.60;99.90
14682;DHT22;7429;52.498;13.480;2023-02-07T01:36:05;-4.60;99.90
14682;DHT22;7429;52.498;13.480;2023-02-07T01:39:08;-4.60;99.90
14682;DHT22;7429;52.498;13.480;2023-02-07T01:42:12;-4.60;99.90
14682;DHT22;7429;52.498;13.480;2023-02-07T01:45:27;-4.60;99.90
14682;DHT22;7429;52.498;13.480;2023-02-07T01:48:34;-4.60;99.90
14682;DHT22;7429;52.498;13.480;2023-02-07T01:51:43;-4.70;99.90
14682;DHT22;7429;52.498;13.480;2023-02-07T01:54:50;-4.70;99.90
14682;DHT22;7429;52.498;13.480;2023-02-07T01:57:56;-4.70;99.90
14682;DHT22;7429;52.498;13.480;2023-02-07T02:01:02;-4.70;99.90
14682;DHT22;7429;52.498;13.480;2023-02-07T02:04:07;-4.70;99.90
14682;DHT22;7429;52.498;13.480;2023-02-07T02:07:12;-4.70;99.90
14682;DHT22;7429;52.498;13.480;2023-02-07T02:10:18;-4.70;99.90
14682;DHT22;7429;52.498;13.480;2023-02-07T02:13:29;-4.80;99.90
14682;DHT22;7429;52.498;13.480;2023-02-07T02:16:47;-4.80;99.90
14682;DHT22;7429;52.498;13.480;2023-02-07T02:20:24;-4.80;99.90
14682;DHT22;7429;52.498;13.480;2023-02-07T02:28:06;-4.80;99.90
14682;DHT22;7429;52.498;13.480;2023-02-07T02:31:41;-4.80;99.90
14682;DHT22;7429;52.498;13.480;2023-02-07T02:35:09;-4.80;99.90
14682;DHT22;7429;52.498;13.480;2023-02-07T02:38:20;-4.70;99.90
14682;DHT22;7429;52.498;13.480;2023-02-07T02:41:30;-4.80;99.90
14682;DHT22;7429;52.498;13.480;2023-02-07T02:44:44;-4.80;99.90
14682;DHT22;7429;52.498;13.480;2023-02-07T02:47:50;-4.80;99.90
14682;DHT22;7429;52.498;13.480;2023-02-07T02:50:56;-4.80;99.90
14682;DHT22;7429;52.498;13.480;2023-02-07T02:54:00;-4.90;99.90
14682;DHT22;7429;52.498;13.480;2023-02-07T02:57:30;-4.90;99.90
14682;DHT22;7429;52.498;13.480;2023-02-07T03:00:47;-4.90;99.90
14682;DHT22;7429;52.498;13.480;2023-02-07T03:07:43;-5.00;99.90
14682;DHT22;7429;52.498;13.480;2023-02-07T03:10:58;-5.00;99.90
14682;DHT22;7429;52.498;13.480;2023-02-07T03:14:13;-5.10;99.90
14682;DHT22;7429;52.498;13.480;2023-02-07T03:17:29;-5.10;99.90
14682;DHT22;7429;52.498;13.480;2023-02-07T03:20:37;-5.10;99.90
14682;DHT22;7429;52.498;13.480;2023-02-07T03:23:43;-5.10;99.90
14682;DHT22;7429;52.498;13.480;2023-02-07T03:26:50;-5.10;99.90
14682;DHT22;7429;52.498;13.480;2023-02-07T03:29:58;-5.10;99.90
14682;DHT22;7429;52.498;13.480;2023-02-07T03:33:06;-5.10;99.90
14682;DHT22;7429;52.498;13.480;2023-02-07T03:36:18;-5.10;99.90
14682;DHT22;7429;52.498;13.480;2023-02-07T03:39:25;-5.20;99.90
14682;DHT22;7429;52.498;13.480;2023-02-07T03:42:31;-5.10;99.90
14682;DHT22;7429;52.498;13.480;2023-02-07T03:45:35;-5.20;99.90
14682;DHT22;7429;52.498;13.480;2023-02-07T03:48:39;-5.20;99.90
14682;DHT22;7429;52.498;13.480;2023-02-07T03:51:43;-5.20;99.90
14682;DHT22;7429;52.498;13.480;2023-02-07T03:54:47;-5.20;99.90
14682;DHT22;7429;52.498;13.480;2023-02-07T03:57:50;-5.20;99.90
14682;DHT22;7429;52.498;13.480;2023-02-07T04:00:54;-5.30;99.90
14682;DHT22;7429;52.498;13.480;2023-02-07T04:04:00;-5.30;99.90
14682;DHT22;7429;52.498;13.480;2023-02-07T04:07:03;-5.30;99.90
14682;DHT22;7429;52.498;13.480;2023-02-07T04:10:14;-5.30;99.90
14682;DHT22;7429;52.498;13.480;2023-02-07T04:13:23;-5.30;99.90
14682;DHT22;7429;52.498;13.480;2023-02-07T04:16:26;-5.30;99.90
14682;DHT22;7429;52.498;13.480;2023-02-07T04:19:30;-5.20;99.90
14682;DHT22;7429;52.498;13.480;2023-02-07T04:22:33;-5.30;99.90
14682;DHT22;7429;52.498;13.480;2023-02-07T04:25:38;-5.20;99.90
14682;DHT22;7429;52.498;13.480;2023-02-07T04:28:41;-5.20;99.90
14682;DHT22;7429;52.498;13.480;2023-02-07T04:31:44;-5.30;99.90
14682;DHT22;7429;52.498;13.480;2023-02-07T04:34:48;-5.30;99.90
14682;DHT22;7429;52.498;13.480;2023-02-07T04:37:51;-5.30;99.90
14682;DHT22;7429;52.498;13.480;2023-02-07T04:40:58;-5.40;99.90
14682;DHT22;7429;52.498;13.480;2023-02-07T04:44:04;-5.30;99.90
14682;DHT22;7429;52.498;13.480;2023-02-07T04:47:07;-5.40;99.90
14682;DHT22;7429;52.498;13.480;2023-02-07T04:50:10;-5.50;99.90
14682;DHT22;7429;52.498;13.480;2023-02-07T04:53:14;-5.40;99.90
14682;DHT22;7429;52.498;13.480;2023-02-07T04:56:18;-5.30;99.90
14682;DHT22;7429;52.498;13.480;2023-02-07T04:59:21;-5.40;99.90
14682;DHT22;7429;52.498;13.480;2023-02-07T05:02:24;-5.40;99.90
14682;DHT22;7429;52.498;13.480;2023-02-07T05:05:28;-5.50;99.90
14682;DHT22;7429;52.498;13.480;2023-02-07T05:08:31;-5.40;99.90
14682;DHT22;7429;52.498;13.480;2023-02-07T05:11:36;-5.40;99.90
14682;DHT22;7429;52.498;13.480;2023-02-07T05:14:40;-5.40;99.90
14682;DHT22;7429;52.498;13.480;2023-02-07T05:17:43;-5.40;99.90
14682;DHT22;7429;52.498;13.480;2023-02-07T05:20:47;-5.40;99.90
14682;DHT22;7429;52.498;13.480;2023-02-07T05:23:53;-5.50;99.90
14682;DHT22;7429;52.498;13.480;2023-02-07T05:26:57;-5.50;99.90
14682;DHT22;7429;52.498;13.480;2023-02-07T05:30:02;-5.50;99.90
14682;DHT22;7429;52.498;13.480;2023-02-07T05:33:06;-5.50;99.90
14682;DHT22;7429;52.498;13.480;2023-02-07T05:36:10;-5.50;99.90
14682;DHT22;7429;52.498;13.480;2023-02-07T05:39:13;-5.60;99.90
14682;DHT22;7429;52.498;13.480;2023-02-07T05:42:18;-5.60;99.90
14682;DHT22;7429;52.498;13.480;2023-02-07T05:45:22;-5.50;99.90
14682;DHT22;7429;52.498;13.480;2023-02-07T05:48:25;-5.60;99.90
14682;DHT22;7429;52.498;13.480;2023-02-07T05:51:28;-5.60;99.90
14682;DHT22;7429;52.498;13.480;2023-02-07T05:54:32;-5.60;99.90
14682;DHT22;7429;52.498;13.480;2023-02-07T05:57:36;-5.60;99.90
14682;DHT22;7429;52.498;13.480;2023-02-07T06:00:40;-5.60;99.90
14682;DHT22;7429;52.498;13.480;2023-02-07T06:03:43;-5.60;99.90
14682;DHT22;7429;52.498;13.480;2023-02-07T06:06:46;-5.60;99.90
14682;DHT22;7429;52.498;13.480;2023-02-07T06:09:50;-5.50;99.90
14682;DHT22;7429;52.498;13.480;2023-02-07T06:12:55;-5.60;99.90
14682;DHT22;7429;52.498;13.480;2023-02-07T06:15:59;-5.50;99.90
14682;DHT22;7429;52.498;13.480;2023-02-07T06:19:05;-5.60;99.90
14682;DHT22;7429;52.498;13.480;2023-02-07T06:22:08;-5.60;99.90
14682;DHT22;7429;52.498;13.480;2023-02-07T06:25:12;-5.60;99.90
14682;DHT22;7429;52.498;13.480;2023-02-07T06:28:16;-5.70;99.90
14682;DHT22;7429;52.498;13.480;2023-02-07T06:31:19;-5.70;99.90
14682;DHT22;7429;52.498;13.480;2023-02-07T06:34:23;-5.70;99.90
14682;DHT22;7429;52.498;13.480;2023-02-07T06:37:26;-5.60;99.90
14682;DHT22;7429;52.498;13.480;2023-02-07T06:40:30;-5.60;99.90
14682;DHT22;7429;52.498;13.480;2023-02-07T06:43:34;-5.60;99.90
14682;DHT22;7429;52.498;13.480;2023-02-07T06:46:38;-5.70;99.90
14682;DHT22;7429;52.498;13.480;2023-02-07T06:49:41;-5.70;99.90
14682;DHT22;7429;52.498;13.480;2023-02-07T06:52:44;-5.70;99.90
14682;DHT22;7429;52.498;13.480;2023-02-07T06:55:48;-5.70;99.90
14682;DHT22;7429;52.498;13.480;2023-02-07T06:58:54;-5.70;99.90
14682;DHT22;7429;52.498;13.480;2023-02-07T07:01:57;-5.60;99.90
14682;DHT22;7429;52.498;13.480;2023-02-07T07:05:02;-5.60;99.90
14682;DHT22;7429;52.498;13.480;2023-02-07T07:08:06;-5.60;99.90
14682;DHT22;7429;52.498;13.480;2023-02-07T07:11:10;-5.60;99.90
14682;DHT22;7429;52.498;13.480;2023-02-07T07:14:15;-5.50;99.90
14682;DHT22;7429;52.498;13.480;2023-02-07T07:17:18;-5.60;99.90
14682;DHT22;7429;52.498;13.480;2023-02-07T07:20:21;-5.50;99.90
14682;DHT22;7429;52.498;13.480;2023-02-07T07:23:28;-5.50;99.90
14682;DHT22;7429;52.498;13.480;2023-02-07T07:26:33;-5.40;99.90
14682;DHT22;7429;52.498;13.480;2023-02-07T07:29:51;-5.40;99.90
14682;DHT22;7429;52.498;13.480;2023-02-07T07:32:54;-5.30;99.90
14682;DHT22;7429;52.498;13.480;2023-02-07T07:35:58;-5.20;99.90
14682;DHT22;7429;52.498;13.480;2023-02-07T07:39:03;-5.10;99.90
14682;DHT22;7429;52.498;13.480;2023-02-07T07:42:06;-5.10;99.90
14682;DHT22;7429;52.498;13.480;2023-02-07T07:45:26;-5.10;99.90
14682;DHT22;7429;52.498;13.480;2023-02-07T07:48:29;-5.00;99.90
14682;DHT22;7429;52.498;13.480;2023-02-07T07:51:32;-5.00;99.90
14682;DHT22;7429;52.498;13.480;2023-02-07T07:54:36;-4.90;99.90
14682;DHT22;7429;52.498;13.480;2023-02-07T07:57:40;-4.80;99.90
14682;DHT22;7429;52.498;13.480;2023-02-07T08:00:45;-4.90;99.90
14682;DHT22;7429;52.498;13.480;2023-02-07T08:03:49;-4.80;99.90
14682;DHT22;7429;52.498;13.480;2023-02-07T08:06:53;-4.80;99.90
14682;DHT22;7429;52.498;13.480;2023-02-07T08:09:56;-4.70;99.90
14682;DHT22;7429;52.498;13.480;2023-02-07T08:12:59;-4.60;99.90
14682;DHT22;7429;52.498;13.480;2023-02-07T08:16:05;-4.50;99.90
14682;DHT22;7429;52.498;13.480;2023-02-07T08:19:11;-4.40;99.90
14682;DHT22;7429;52.498;13.480;2023-02-07T08:22:17;-4.30;99.90
14682;DHT22;7429;52.498;13.480;2023-02-07T08:25:21;-4.10;99.90
14682;DHT22;7429;52.498;13.480;2023-02-07T08:28:25;-4.00;99.90
14682;DHT22;7429;52.498;13.480;2023-02-07T08:31:31;-4.00;99.90
14682;DHT22;7429;52.498;13.480;2023-02-07T08:34:34;-3.90;99.90
14682;DHT22;7429;52.498;13.480;2023-02-07T08:37:38;-3.80;99.90
14682;DHT22;7429;52.498;13.480;2023-02-07T08:40:41;-3.70;99.90
14682;DHT22;7429;52.498;13.480;2023-02-07T08:43:45;-3.50;99.90
14682;DHT22;7429;52.498;13.480;2023-02-07T08:46:50;-3.50;99.90
14682;DHT22;7429;52.498;13.480;2023-02-07T08:49:53;-3.30;99.90
14682;DHT22;7429;52.498;13.480;2023-02-07T08:52:56;-3.30;99.90
14682;DHT22;7429;52.498;13.480;2023-02-07T08:55:59;-3.20;99.90
14682;DHT22;7429;52.498;13.480;2023-02-07T08:59:02;-3.10;99.90
14682;DHT22;7429;52.498;13.480;2023-02-07T09:02:07;-3.00;99.90
14682;DHT22;7429;52.498;13.480;2023-02-07T09:05:14;-3.00;99.90
14682;DHT22;7429;52.498;13.480;2023-02-07T09:08:20;-2.70;99.90
14682;DHT22;7429;52.498;13.480;2023-02-07T09:11:26;-2.60;99.90
14682;DHT22;7429;52.498;13.480;2023-02-07T09:14:29;-2.50;99.90
14682;DHT22;7429;52.498;13.480;2023-02-07T09:17:33;-2.50;99.90
14682;DHT22;7429;52.498;13.480;2023-02-07T09:20:40;-2.30;99.90
14682;DHT22;7429;52.498;13.480;2023-02-07T09:23:43;-2.30;99.90
14682;DHT22;7429;52.498;13.480;2023-02-07T09:26:48;-2.30;99.90
14682;DHT22;7429;52.498;13.480;2023-02-07T09:29:51;-2.20;99.90
14682;DHT22;7429;52.498;13.480;2023-02-07T09:32:57;-2.20;99.90
14682;DHT22;7429;52.498;13.480;2023-02-07T09:36:00;-2.10;99.90
14682;DHT22;7429;52.498;13.480;2023-02-07T09:39:04;-2.10;99.90
14682;DHT22;7429;52.498;13.480;2023-02-07T09:42:16;-2.00;99.90
14682;DHT22;7429;52.498;13.480;2023-02-07T09:45:28;-1.80;99.90
14682;DHT22;7429;52.498;13.480;2023-02-07T09:48:43;-1.70;99.90
14682;DHT22;7429;52.498;13.480;2023-02-07T09:51:49;-1.60;99.90
14682;DHT22;7429;52.498;13.480;2023-02-07T09:54:58;-1.60;99.90
14682;DHT22;7429;52.498;13.480;2023-02-07T09:58:06;-1.50;99.90
14682;DHT22;7429;52.498;13.480;2023-02-07T10:01:14;-1.30;99.90
14682;DHT22;7429;52.498;13.480;2023-02-07T10:04:28;-1.30;99.90
14682;DHT22;7429;52.498;13.480;2023-02-07T10:07:35;-1.20;99.90
14682;DHT22;7429;52.498;13.480;2023-02-07T10:10:41;-1.10;99.90
14682;DHT22;7429;52.498;13.480;2023-02-07T10:13:58;-1.00;99.90
14682;DHT22;7429;52.498;13.480;2023-02-07T10:17:44;-0.70;99.90
14682;DHT22;7429;52.498;13.480;2023-02-07T10:20:57;-0.70;99.90
14682;DHT22;7429;52.498;13.480;2023-02-07T10:24:15;-0.70;99.90
14682;DHT22;7429;52.498;13.480;2023-02-07T10:27:30;-0.60;99.90
14682;DHT22;7429;52.498;13.480;2023-02-07T10:30:36;-0.50;99.90
14682;DHT22;7429;52.498;13.480;2023-02-07T10:33:46;-0.40;99.90
14682;DHT22;7429;52.498;13.480;2023-02-07T10:36:55;-0.40;99.90
14682;DHT22;7429;52.498;13.480;2023-02-07T10:40:02;-0.20;99.90
14682;DHT22;7429;52.498;13.480;2023-02-07T10:43:11;-0.10;99.90
14682;DHT22;7429;52.498;13.480;2023-02-07T10:46:22;-0.10;99.90
14682;DHT22;7429;52.498;13.480;2023-02-07T10:49:28;0.10;99.90
14682;DHT22;7429;52.498;13.480;2023-02-07T10:52:39;0.30;99.90
14682;DHT22;7429;52.498;13.480;2023-02-07T10:55:45;0.40;99.90
14682;DHT22;7429;52.498;13.480;2023-02-07T10:58:49;0.30;99.90
14682;DHT22;7429;52.498;13.480;2023-02-07T11:01:55;0.50;99.90
14682;DHT22;7429;52.498;13.480;2023-02-07T11:05:00;0.60;99.90
14682;DHT22;7429;52.498;13.480;2023-02-07T11:08:18;0.70;99.90
14682;DHT22;7429;52.498;13.480;2023-02-07T11:11:27;0.80;99.90
14682;DHT22;7429;52.498;13.480;2023-02-07T11:14:32;0.90;99.90
14682;DHT22;7429;52.498;13.480;2023-02-07T11:17:38;1.10;99.90
14682;DHT22;7429;52.498;13.480;2023-02-07T11:20:49;1.10;99.90
14682;DHT22;7429;52.498;13.480;2023-02-07T11:23:58;1.30;99.90
14682;DHT22;7429;52.498;13.480;2023-02-07T11:27:04;1.40;99.90
14682;DHT22;7429;52.498;13.480;2023-02-07T11:30:15;1.50;99.90
14682;DHT22;7429;52.498;13.480;2023-02-07T11:33:25;1.50;99.90
14682;DHT22;7429;52.498;13.480;2023-02-07T11:36:30;1.70;99.90
14682;DHT22;7429;52.498;13.480;2023-02-07T11:39:42;1.90;99.90
14682;DHT22;7429;52.498;13.480;2023-02-07T11:42:48;2.00;99.90
14682;DHT22;7429;52.498;13.480;2023-02-07T11:45:58;2.10;99.90
14682;DHT22;7429;52.498;13.480;2023-02-07T11:49:04;2.20;99.90
14682;DHT22;7429;52.498;13.480;2023-02-07T11:52:10;2.50;99.90
14682;DHT22;7429;52.498;13.480;2023-02-07T11:55:19;2.70;99.90
14682;DHT22;7429;52.498;13.480;2023-02-07T11:58:30;2.70;99.90
14682;DHT22;7429;52.498;13.480;2023-02-07T12:01:35;2.70;99.90
14682;DHT22;7429;52.498;13.480;2023-02-07T12:04:43;2.70;99.90
14682;DHT22;7429;52.498;13.480;2023-02-07T12:07:49;2.80;99.90
14682;DHT22;7429;52.498;13.480;2023-02-07T12:11:00;2.80;99.90
14682;DHT22;7429;52.498;13.480;2023-02-07T12:14:12;2.70;99.90
14682;DHT22;7429;52.498;13.480;2023-02-07T12:17:25;2.70;99.90
14682;DHT22;7429;52.498;13.480;2023-02-07T12:20:33;2.70;99.90
14682;DHT22;7429;52.498;13.480;2023-02-07T12:23:42;2.90;99.90
14682;DHT22;7429;52.498;13.480;2023-02-07T12:26:52;3.20;99.90
14682;DHT22;7429;52.498;13.480;2023-02-07T12:30:01;3.30;99.90
14682;DHT22;7429;52.498;13.480;2023-02-07T12:33:46;3.50;99.90
14682;DHT22;7429;52.498;13.480;2023-02-07T12:39:40;3.60;99.90
14682;DHT22;7429;52.498;13.480;2023-02-07T13:00:14;3.90;99.90
14682;DHT22;7429;52.498;13.480;2023-02-07T13:03:32;3.90;99.90
14682;DHT22;7429;52.498;13.480;2023-02-07T13:06:49;3.80;99.90
14682;DHT22;7429;52.498;13.480;2023-02-07T13:10:05;3.80;99.90
14682;DHT22;7429;52.498;13.480;2023-02-07T13:13:20;3.70;99.90
14682;DHT22;7429;52.498;13.480;2023-02-07T13:16:30;3.50;99.90
14682;DHT22;7429;52.498;13.480;2023-02-07T13:19:45;3.30;99.90
14682;DHT22;7429;52.498;13.480;2023-02-07T13:22:59;3.20;99.90
14682;DHT22;7429;52.498;13.480;2023-02-07T13:26:11;3.30;99.90
14682;DHT22;7429;52.498;13.480;2023-02-07T13:29:21;3.30;99.90
14682;DHT22;7429;52.498;13.480;2023-02-07T13:32:27;3.40;99.90
14682;DHT22;7429;52.498;13.480;2023-02-07T13:35:33;3.50;99.90
14682;DHT22;7429;52.498;13.480;2023-02-07T13:38:53;3.50;99.90
14682;DHT22;7429;52.498;13.480;2023-02-07T13:42:16;3.60;99.90
14682;DHT22;7429;52.498;13.480;2023-02-07T13:45:27;3.50;99.90
14682;DHT22;7429;52.498;13.480;2023-02-07T13:48:42;3.60;99.90
14682;DHT22;7429;52.498;13.480;2023-02-07T13:51:53;3.80;99.90
14682;DHT22;7429;52.498;13.480;2023-02-07T13:55:08;4.10;99.90
14682;DHT22;7429;52.498;13.480;2023-02-07T13:58:52;4.30;99.90
14682;DHT22;7429;52.498;13.480;2023-02-07T14:02:16;4.60;99.90
14682;DHT22;7429;52.498;13.480;2023-02-07T14:05:25;4.80;99.90
14682;DHT22;7429;52.498;13.480;2023-02-07T14:08:32;5.10;99.90
14682;DHT22;7429;52.498;13.480;2023-02-07T14:11:38;5.20;99.90
14682;DHT22;7429;52.498;13.480;2023-02-07T14:14:44;5.30;99.90
14682;DHT22;7429;52.498;13.480;2023-02-07T14:18:03;5.10;99.90
14682;DHT22;7429;52.498;13.480;2023-02-07T14:21:27;4.90;99.90
14682;DHT22;7429;52.498;13.480;2023-02-07T14:24:48;5.00;99.90
14682;DHT22;7429;52.498;13.480;2023-02-07T14:28:17;5.00;99.90
14682;DHT22;7429;52.498;13.480;2023-02-07T14:31:31;5.00;99.90
14682;DHT22;7429;52.498;13.480;2023-02-07T14:34:58;5.20;99.90
14682;DHT22;7429;52.498;13.480;2023-02-07T14:38:21;5.10;99.90
14682;DHT22;7429;52.498;13.480;2023-02-07T14:41:30;5.10;99.90
14682;DHT22;7429;52.498;13.480;2023-02-07T14:44:36;4.90;99.90
14682;DHT22;7429;52.498;13.480;2023-02-07T14:47:40;4.80;99.90
14682;DHT22;7429;52.498;13.480;2023-02-07T14:50:50;4.60;99.90
14682;DHT22;7429;52.498;13.480;2023-02-07T14:54:00;4.40;99.90
14682;DHT22;7429;52.498;13.480;2023-02-07T14:57:15;4.20;99.90
14682;DHT22;7429;52.498;13.480;2023-02-07T15:00:30;4.00;99.90
14682;DHT22;7429;52.498;13.480;2023-02-07T15:03:35;3.80;99.90
14682;DHT22;7429;52.498;13.480;2023-02-07T15:06:40;3.50;99.90
14682;DHT22;7429;52.498;13.480;2023-02-07T15:09:46;3.50;99.90
14682;DHT22;7429;52.498;13.480;2023-02-07T15:12:50;3.30;99.90
14682;DHT22;7429;52.498;13.480;2023-02-07T15:15:58;3.10;99.90
14682;DHT22;7429;52.498;13.480;2023-02-07T15:19:11;3.10;99.90
14682;DHT22;7429;52.498;13.480;2023-02-07T15:22:23;3.10;99.90
14682;DHT22;7429;52.498;13.480;2023-02-07T15:25:29;3.10;99.90
14682;DHT22;7429;52.498;13.480;2023-02-07T15:28:33;3.00;99.90
14682;DHT22;7429;52.498;13.480;2023-02-07T15:31:38;2.90;99.90
14682;DHT22;7429;52.498;13.480;2023-02-07T15:34:43;2.80;99.90
14682;DHT22;7429;52.498;13.480;2023-02-07T15:37:47;2.60;99.90
14682;DHT22;7429;52.498;13.480;2023-02-07T15:40:58;2.60;99.90
14682;DHT22;7429;52.498;13.480;2023-02-07T15:44:06;2.40;99.90
14682;DHT22;7429;52.498;13.480;2023-02-07T15:47:36;2.30;99.90
14682;DHT22;7429;52.498;13.480;2023-02-07T15:50:39;2.20;99.90
14682;DHT22;7429;52.498;13.480;2023-02-07T15:53:43;2.10;99.90
14682;DHT22;7429;52.498;13.480;2023-02-07T15:56:49;2.00;99.90
14682;DHT22;7429;52.498;13.480;2023-02-07T16:00:01;2.00;99.90
14682;DHT22;7429;52.498;13.480;2023-02-07T16:03:18;1.80;99.90
14682;DHT22;7429;52.498;13.480;2023-02-07T16:06:24;1.50;99.90
14682;DHT22;7429;52.498;13.480;2023-02-07T16:09:36;1.30;99.90
14682;DHT22;7429;52.498;13.480;2023-02-07T16:12:46;1.30;99.90
14682;DHT22;7429;52.498;13.480;2023-02-07T16:15:55;1.30;99.90
14682;DHT22;7429;52.498;13.480;2023-02-07T16:19:06;1.20;99.90
14682;DHT22;7429;52.498;13.480;2023-02-07T16:22:13;1.20;99.90
14682;DHT22;7429;52.498;13.480;2023-02-07T16:25:19;1.10;99.90
14682;DHT22;7429;52.498;13.480;2023-02-07T16:28:25;1.10;99.90
14682;DHT22;7429;52.498;13.480;2023-02-07T16:31:30;1.00;99.90
14682;DHT22;7429;52.498;13.480;2023-02-07T16:34:33;1.00;99.90
14682;DHT22;7429;52.498;13.480;2023-02-07T16:37:36;0.80;99.90
14682;DHT22;7429;52.498;13.480;2023-02-07T16:40:39;0.70;99.90
14682;DHT22;7429;52.498;13.480;2023-02-07T16:43:44;0.70;99.90
14682;DHT22;7429;52.498;13.480;2023-02-07T16:46:51;0.60;99.90
14682;DHT22;7429;52.498;13.480;2023-02-07T16:49:54;0.50;99.90
14682;DHT22;7429;52.498;13.480;2023-02-07T16:52:57;0.50;99.90
14682;DHT22;7429;52.498;13.480;2023-02-07T16:56:01;0.50;99.90
14682;DHT22;7429;52.498;13.480;2023-02-07T16:59:08;0.50;99.90
14682;DHT22;7429;52.498;13.480;2023-02-07T17:02:14;0.50;99.90
14682;DHT22;7429;52.498;13.480;2023-02-07T17:05:19;0.40;99.90
14682;DHT22;7429;52.498;13.480;2023-02-07T17:08:23;0.30;99.90
14682;DHT22;7429;52.498;13.480;2023-02-07T17:11:30;0.30;99.90
14682;DHT22;7429;52.498;13.480;2023-02-07T17:14:35;0.20;99.90
14682;DHT22;7429;52.498;13.480;2023-02-07T17:17:39;0.30;99.90
14682;DHT22;7429;52.498;13.480;2023-02-07T17:20:42;0.20;99.90
14682;DHT22;7429;52.498;13.480;2023-02-07T17:23:45;0.20;99.90
14682;DHT22;7429;52.498;13.480;2023-02-07T17:26:52;0.20;99.90
14682;DHT22;7429;52.498;13.480;2023-02-07T17:29:57;0.10;99.90
14682;DHT22;7429;52.498;13.480;2023-02-07T17:33:00;0.20;99.90
14682;DHT22;7429;52.498;13.480;2023-02-07T17:36:04;0.10;99.90
14682;DHT22;7429;52.498;13.480;2023-02-07T17:39:10;0.10;99.90
14682;DHT22;7429;52.498;13.480;2023-02-07T17:42:14;0.10;99.90
14682;DHT22;7429;52.498;13.480;2023-02-07T17:45:23;0.20;99.90
14682;DHT22;7429;52.498;13.480;2023-02-07T17:48:31;0.20;99.90
14682;DHT22;7429;52.498;13.480;2023-02-07T17:51:34;0.20;99.90
14682;DHT22;7429;52.498;13.480;2023-02-07T17:54:38;0.10;99.90
14682;DHT22;7429;52.498;13.480;2023-02-07T17:57:43;0.10;99.90
14682;DHT22;7429;52.498;13.480;2023-02-07T18:00:49;0.10;99.90
14682;DHT22;7429;52.498;13.480;2023-02-07T18:03:54;0.10;99.90
14682;DHT22;7429;52.498;13.480;2023-02-07T18:06:57;0.10;99.90
14682;DHT22;7429;52.498;13.480;2023-02-07T18:10:00;0.10;99.90
14682;DHT22;7429;52.498;13.480;2023-02-07T18:13:04;0.10;99.90
14682;DHT22;7429;52.498;13.480;2023-02-07T18:16:09;0.00;99.90
14682;DHT22;7429;52.498;13.480;2023-02-07T18:19:16;0.00;99.90
14682;DHT22;7429;52.498;13.480;2023-02-07T18:22:19;-0.10;99.90
14682;DHT22;7429;52.498;13.480;2023-02-07T18:25:24;-0.20;99.90
14682;DHT22;7429;52.498;13.480;2023-02-07T18:28:28;-0.20;99.90
14682;DHT22;7429;52.498;13.480;2023-02-07T18:31:38;-0.30;99.90
14682;DHT22;7429;52.498;13.480;2023-02-07T18:34:42;-0.40;99.90
14682;DHT22;7429;52.498;13.480;2023-02-07T18:37:50;-0.40;99.90
14682;DHT22;7429;52.498;13.480;2023-02-07T18:40:53;-0.40;99.90
14682;DHT22;7429;52.498;13.480;2023-02-07T18:43:56;-0.50;99.90
14682;DHT22;7429;52.498;13.480;2023-02-07T18:47:18;-0.60;99.90
14682;DHT22;7429;52.498;13.480;2023-02-07T18:50:26;-0.60;99.90
14682;DHT22;7429;52.498;13.480;2023-02-07T18:53:30;-0.60;99.90
14682;DHT22;7429;52.498;13.480;2023-02-07T18:56:38;-0.60;99.90
14682;DHT22;7429;52.498;13.480;2023-02-07T18:59:46;-0.70;99.90
14682;DHT22;7429;52.498;13.480;2023-02-07T19:02:50;-0.80;99.90
14682;DHT22;7429;52.498;13.480;2023-02-07T19:06:00;-0.80;99.90
14682;DHT22;7429;52.498;13.480;2023-02-07T19:09:13;-1.00;99.90
14682;DHT22;7429;52.498;13.480;2023-02-07T19:12:28;-0.90;99.90
14682;DHT22;7429;52.498;13.480;2023-02-07T19:15:31;-0.90;99.90
14682;DHT22;7429;52.498;13.480;2023-02-07T19:19:17;-1.00;99.90
14682;DHT22;7429;52.498;13.480;2023-02-07T19:22:30;-1.00;99.90
14682;DHT22;7429;52.498;13.480;2023-02-07T19:25:36;-1.00;99.90
14682;DHT22;7429;52.498;13.480;2023-02-07T19:28:51;-1.10;99.90
14682;DHT22;7429;52.498;13.480;2023-02-07T19:31:55;-1.10;99.90
14682;DHT22;7429;52.498;13.480;2023-02-07T19:35:04;-1.20;99.90
14682;DHT22;7429;52.498;13.480;2023-02-07T19:38:16;-1.20;99.90
14682;DHT22;7429;52.498;13.480;2023-02-07T19:41:25;-1.30;99.90
14682;DHT22;7429;52.498;13.480;2023-02-07T19:45:10;-1.40;99.90
14682;DHT22;7429;52.498;13.480;2023-02-07T19:48:26;-1.40;99.90
14682;DHT22;7429;52.498;13.480;2023-02-07T19:51:35;-1.40;99.90
14682;DHT22;7429;52.498;13.480;2023-02-07T19:54:41;-1.40;99.90
14682;DHT22;7429;52.498;13.480;2023-02-07T19:57:45;-1.40;99.90
14682;DHT22;7429;52.498;13.480;2023-02-07T20:00:52;-1.50;99.90
14682;DHT22;7429;52.498;13.480;2023-02-07T20:04:04;-1.50;99.90
14682;DHT22;7429;52.498;13.480;2023-02-07T20:07:16;-1.50;99.90
14682;DHT22;7429;52.498;13.480;2023-02-07T20:10:22;-1.50;99.90
14682;DHT22;7429;52.498;13.480;2023-02-07T20:13:32;-1.50;99.90
14682;DHT22;7429;52.498;13.480;2023-02-07T20:16:36;-1.60;99.90
14682;DHT22;7429;52.498;13.480;2023-02-07T20:19:44;-1.60;99.90
14682;DHT22;7429;52.498;13.480;2023-02-07T20:22:51;-1.60;99.90